Time,TemperatureF,DewpointF,PressureIn,WindDirection,WindDirectionDegrees,WindSpeedMPH,WindSpeedGustMPH,Humidity,HourlyPrecipIn,Conditions,Clouds,dailyrainin,SoftwareType,DateUTC
2013-02-21 00:05:00,26.6,12.2,29.92,West,270,6.8,-999.0,54,-99.99,,,0.00,Acu-Link.com,2013-02-21 05:05:00,
2013-02-21 00:20:00,25.9,11.6,29.92,West,270,13.5,-999.0,54,-99.99,,,0.00,Acu-Link.com,2013-02-21 05:20:00,
2013-02-21 00:35:00,26.4,12.5,29.92,SE,135,6.8,-999.0,55,-99.99,,,0.00,Acu-Link.com,2013-02-21 05:35:00,
2013-02-21 00:51:00,26.1,12.2,29.92,North,0,4.7,-999.0,55,-99.99,,,0.00,Acu-Link.com,2013-02-21 05:51:00,
2013-02-21 01:06:00,25.9,12.0,29.92,West,270,9.9,-999.0,55,-99.99,,,0.00,Acu-Link.com,2013-02-21 06:06:00,
2013-02-21 01:21:00,25.9,12.4,29.92,NNW,337,3.2,-999.0,56,-99.99,,,0.00,Acu-Link.com,2013-02-21 06:21:00,
2013-02-21 01:36:00,25.5,11.6,29.92,WNW,292,2.7,-999.0,55,-99.99,,,0.00,Acu-Link.com,2013-02-21 06:36:00,
2013-02-21 01:52:00,26.1,12.6,29.91,West,270,5.8,-999.0,56,-99.99,,,0.00,Acu-Link.com,2013-02-21 06:52:00,
2013-02-21 02:07:00,25.5,12.0,29.91,NNW,337,9.9,-999.0,56,-99.99,,,0.00,Acu-Link.com,2013-02-21 07:07:00,
2013-02-21 02:22:00,25.5,12.0,29.92,West,270,6.3,-999.0,56,-99.99,,,0.00,Acu-Link.com,2013-02-21 07:22:00,
2013-02-21 02:38:00,25.3,11.8,29.91,NW,315,11.4,-999.0,56,-99.99,,,0.00,Acu-Link.com,2013-02-21 07:38:00,
2013-02-21 02:53:00,25.3,11.8,29.92,WNW,292,6.8,-999.0,56,-99.99,,,0.00,Acu-Link.com,2013-02-21 07:53:00,
2013-02-21 03:08:00,25.3,11.8,29.92,SSW,202,8.3,-999.0,56,-99.99,,,0.00,Acu-Link.com,2013-02-21 08:08:00,
2013-02-21 03:23:00,25.3,11.8,29.91,NW,315,7.3,-999.0,56,-99.99,,,0.00,Acu-Link.com,2013-02-21 08:23:00,
2013-02-21 03:39:00,25.5,12.0,29.91,West,270,7.8,-999.0,56,-99.99,,,0.00,Acu-Link.com,2013-02-21 08:39:00,
2013-02-21 03:54:00,25.5,12.0,29.91,WNW,292,8.3,-999.0,56,-99.99,,,0.00,Acu-Link.com,2013-02-21 08:54:00,
2013-02-21 04:50:00,25.7,12.6,29.92,NNW,337,3.7,-999.0,57,-99.99,,,0.00,Acu-Link.com,2013-02-21 09:50:00,
2013-02-21 05:06:00,25.7,12.6,29.93,West,270,6.8,-999.0,57,-99.99,,,0.00,Acu-Link.com,2013-02-21 10:06:00,
2013-02-21 06:22:00,25.7,12.2,29.95,WNW,292,8.9,-999.0,56,-99.99,,,0.00,Acu-Link.com,2013-02-21 11:22:00,
2013-02-21 09:56:00,30.6,12.8,29.95,NNW,337,7.8,-999.0,47,-99.99,,,0.00,Acu-Link.com,2013-02-21 14:56:00,
2013-02-21 10:11:00,31.5,12.6,29.95,SSW,202,13.5,-999.0,45,-99.99,,,0.00,Acu-Link.com,2013-02-21 15:11:00,
2013-02-21 10:27:00,31.8,13.4,29.95,NW,315,10.9,-999.0,46,-99.99,,,0.00,Acu-Link.com,2013-02-21 15:27:00,
2013-02-21 10:42:00,32.4,12.9,29.94,WSW,247,11.9,-999.0,44,-99.99,,,0.00,Acu-Link.com,2013-02-21 15:42:00,
2013-02-21 10:57:00,32.7,13.2,29.95,West,270,17.6,-999.0,44,-99.99,,,0.00,Acu-Link.com,2013-02-21 15:57:00,
2013-02-21 11:12:00,33.1,13.1,29.96,West,270,14.0,-999.0,43,-99.99,,,0.00,Acu-Link.com,2013-02-21 16:12:00,
2013-02-21 11:27:00,32.7,13.7,29.97,NW,315,8.3,-999.0,45,-99.99,,,0.00,Acu-Link.com,2013-02-21 16:27:00,
2013-02-21 11:42:00,33.1,14.1,29.96,NW,315,13.0,-999.0,45,-99.99,,,0.00,Acu-Link.com,2013-02-21 16:42:00,
2013-02-21 11:58:00,33.8,14.7,29.95,NNE,22,8.3,-999.0,45,-99.99,,,0.00,Acu-Link.com,2013-02-21 16:58:00,
2013-02-21 12:28:00,36.5,15.6,29.94,West,270,7.8,-999.0,42,-99.99,,,0.00,Acu-Link.com,2013-02-21 17:28:00,
2013-02-21 12:43:00,35.1,15.4,29.94,West,270,8.9,-999.0,44,-99.99,,,0.00,Acu-Link.com,2013-02-21 17:43:00,
2013-02-21 12:58:00,35.6,15.3,29.93,West,270,9.9,-999.0,43,-99.99,,,0.00,Acu-Link.com,2013-02-21 17:58:00,
2013-02-21 13:13:00,35.4,14.6,29.93,SSW,202,4.2,-999.0,42,-99.99,,,0.00,Acu-Link.com,2013-02-21 18:13:00,
2013-02-21 13:28:00,36.0,14.6,29.93,WNW,292,8.3,-999.0,41,-99.99,,,0.00,Acu-Link.com,2013-02-21 18:28:00,
2013-02-21 13:43:00,35.4,14.6,29.94,NNE,22,4.7,-999.0,42,-99.99,,,0.00,Acu-Link.com,2013-02-21 18:43:00,
2013-02-21 13:58:00,35.6,14.8,29.94,WNW,292,6.3,-999.0,42,-99.99,,,0.00,Acu-Link.com,2013-02-21 18:58:00,
2013-02-21 14:14:00,35.4,14.6,29.95,WSW,247,21.2,-999.0,42,-99.99,,,0.00,Acu-Link.com,2013-02-21 19:14:00,
2013-02-21 14:29:00,35.2,14.4,29.95,NNW,337,7.8,-999.0,42,-99.99,,,0.00,Acu-Link.com,2013-02-21 19:29:00,
2013-02-21 14:44:00,36.0,15.2,29.95,WSW,247,8.9,-999.0,42,-99.99,,,0.00,Acu-Link.com,2013-02-21 19:44:00,
2013-02-21 14:59:00,36.5,16.2,29.94,North,0,6.8,-999.0,43,-99.99,,,0.00,Acu-Link.com,2013-02-21 19:59:00,
2013-02-21 15:14:00,35.6,15.3,29.96,WNW,292,9.9,-999.0,43,-99.99,,,0.00,Acu-Link.com,2013-02-21 20:14:00,
2013-02-21 15:29:00,35.6,15.3,29.96,NW,315,8.9,-999.0,43,-99.99,,,0.00,Acu-Link.com,2013-02-21 20:29:00,
2013-02-21 15:44:00,35.8,15.5,29.97,South,180,17.6,-999.0,43,-99.99,,,0.00,Acu-Link.com,2013-02-21 20:44:00,
2013-02-21 15:59:00,35.8,16.0,29.97,SW,225,7.8,-999.0,44,-99.99,,,0.00,Acu-Link.com,2013-02-21 20:59:00,
2013-02-21 16:14:00,36.0,15.7,29.98,West,270,10.4,-999.0,43,-99.99,,,0.00,Acu-Link.com,2013-02-21 21:14:00,
2013-02-21 16:29:00,35.4,16.2,30.00,West,270,11.4,-999.0,45,-99.99,,,0.00,Acu-Link.com,2013-02-21 21:29:00,
2013-02-21 16:44:00,34.7,15.0,30.01,West,270,7.3,-999.0,44,-99.99,,,0.00,Acu-Link.com,2013-02-21 21:44:00,
2013-02-21 16:59:00,34.0,15.4,30.01,WNW,292,8.9,-999.0,46,-99.99,,,0.00,Acu-Link.com,2013-02-21 21:59:00,
2013-02-21 17:14:00,33.1,15.1,30.02,WNW,292,8.3,-999.0,47,-99.99,,,0.00,Acu-Link.com,2013-02-21 22:14:00,
2013-02-21 17:29:00,32.4,15.4,30.03,NNE,22,4.7,-999.0,49,-99.99,,,0.00,Acu-Link.com,2013-02-21 22:29:00,
2013-02-21 17:45:00,31.6,15.1,30.04,NE,45,7.8,-999.0,50,-99.99,,,0.00,Acu-Link.com,2013-02-21 22:45:00,
2013-02-21 18:00:00,30.9,14.5,30.05,NNE,22,9.9,-999.0,50,-99.99,,,0.00,Acu-Link.com,2013-02-21 23:00:00,
2013-02-21 18:15:00,30.4,14.5,30.06,NE,45,8.3,-999.0,51,-99.99,,,0.00,Acu-Link.com,2013-02-21 23:15:00,
2013-02-21 18:30:00,30.2,14.7,30.09,WSW,247,5.3,-999.0,52,-99.99,,,0.00,Acu-Link.com,2013-02-21 23:30:00,
2013-02-21 18:46:00,29.7,15.1,30.10,WNW,292,4.7,-999.0,54,-99.99,,,0.00,Acu-Link.com,2013-02-21 23:46:00,
2013-02-21 19:01:00,29.1,15.0,30.10,West,270,5.8,-999.0,55,-99.99,,,0.00,Acu-Link.com,2013-02-22 00:01:00,
2013-02-21 19:16:00,28.9,14.4,30.12,NW,315,8.3,-999.0,54,-99.99,,,0.00,Acu-Link.com,2013-02-22 00:16:00,
2013-02-21 19:31:00,28.8,14.7,30.13,NNW,337,9.4,-999.0,55,-99.99,,,0.00,Acu-Link.com,2013-02-22 00:31:00,
2013-02-21 19:46:00,28.2,14.5,30.16,NW,315,5.3,-999.0,56,-99.99,,,0.00,Acu-Link.com,2013-02-22 00:46:00,
2013-02-21 20:01:00,28.6,14.9,30.17,West,270,14.5,-999.0,56,-99.99,,,0.00,Acu-Link.com,2013-02-22 01:01:00,
2013-02-21 20:16:00,28.0,14.8,30.18,NW,315,5.8,-999.0,57,-99.99,,,0.00,Acu-Link.com,2013-02-22 01:16:00,
2013-02-21 20:31:00,27.7,14.5,30.19,SE,135,3.7,-999.0,57,-99.99,,,0.00,Acu-Link.com,2013-02-22 01:31:00,
2013-02-21 20:47:00,27.0,14.2,30.20,WSW,247,2.7,-999.0,58,-99.99,,,0.00,Acu-Link.com,2013-02-22 01:47:00,
2013-02-21 21:02:00,27.1,14.3,30.22,NNW,337,6.8,-999.0,58,-99.99,,,0.00,Acu-Link.com,2013-02-22 02:02:00,
2013-02-21 21:17:00,26.6,13.8,30.21,North,0,14.0,-999.0,58,-99.99,,,0.00,Acu-Link.com,2013-02-22 02:17:00,
2013-02-21 21:32:00,26.1,13.8,30.21,NNE,22,4.2,-999.0,59,-99.99,,,0.00,Acu-Link.com,2013-02-22 02:32:00,
2013-02-21 21:47:00,25.9,14.0,30.21,SW,225,2.2,-999.0,60,-99.99,,,0.00,Acu-Link.com,2013-02-22 02:47:00,
2013-02-21 22:03:00,26.2,14.2,30.21,NW,315,9.9,-999.0,60,-99.99,,,0.00,Acu-Link.com,2013-02-22 03:03:00,
2013-02-21 22:18:00,25.9,14.3,30.21,NW,315,4.2,-999.0,61,-99.99,,,0.00,Acu-Link.com,2013-02-22 03:18:00,
2013-02-21 22:33:00,25.7,14.1,30.22,NNW,337,6.3,-999.0,61,-99.99,,,0.00,Acu-Link.com,2013-02-22 03:33:00,
2013-02-21 22:48:00,25.5,14.3,30.22,East,90,6.3,-999.0,62,-99.99,,,0.00,Acu-Link.com,2013-02-22 03:48:00,
2013-02-21 23:03:00,26.2,15.0,30.22,NNW,337,11.4,-999.0,62,-99.99,,,0.00,Acu-Link.com,2013-02-22 04:03:00,
2013-02-21 23:18:00,25.9,14.7,30.22,North,0,10.4,-999.0,62,-99.99,,,0.00,Acu-Link.com,2013-02-22 04:18:00,
2013-02-21 23:33:00,26.4,14.8,30.23,NW,315,2.7,-999.0,61,-99.99,,,0.00,Acu-Link.com,2013-02-22 04:33:00,
2013-02-21 23:48:00,25.9,15.1,30.22,North,0,11.4,-999.0,63,-99.99,,,0.00,Acu-Link.com,2013-02-22 04:48:00,